Time;durP1;ratioP1;P1;durP2;ratioP2;P2;SDS_P1;SDS_P2;PMS_P1;PMS_P2;Temp;Humidity;BMP_temperature;BMP_pressure;BME280_temperature;BME280_humidity;BME280_pressure;Samples;Min_cycle;Max_cycle;Signal;HPM_P1;HPM_P2
2021/01/23 00:02:20;;;;;;;8.87;2.87;;;29.60;77.70;;;;;;5052611;28;20168;-71
2021/01/23 00:04:48;;;;;;;13.30;2.90;;;29.50;78.20;;;;;;5052966;28;20623;-70
2021/01/23 00:07:15;;;;;;;18.13;3.43;;;29.70;78.00;;;;;;5052828;28;20218;-71
2021/01/23 00:09:43;;;;;;;14.10;3.03;;;29.70;77.50;;;;;;5052101;28;20218;-70
2021/01/23 00:12:10;;;;;;;9.77;3.13;;;29.70;78.00;;;;;;5052235;28;20211;-70
2021/01/23 00:14:38;;;;;;;15.93;2.70;;;29.70;77.70;;;;;;5053370;28;20191;-69
2021/01/23 00:17:05;;;;;;;13.53;3.20;;;30.10;77.00;;;;;;5052761;28;20681;-72
2021/01/23 00:19:32;;;;;;;10.40;2.67;;;30.40;76.80;;;;;;5052507;28;20180;-70
2021/01/23 00:22:00;;;;;;;14.47;2.97;;;30.30;75.90;;;;;;5053326;28;20179;-69
2021/01/23 00:24:30;;;;;;;15.10;3.50;;;30.10;75.60;;;;;;5053199;28;20271;-69
2021/01/23 00:26:58;;;;;;;13.40;3.10;;;29.90;76.20;;;;;;5051867;28;20235;-70
2021/01/23 00:29:25;;;;;;;10.87;3.10;;;30.00;76.00;;;;;;5053114;28;20661;-68
2021/01/23 00:31:52;;;;;;;12.10;2.90;;;30.00;76.30;;;;;;5052199;28;20218;-71
2021/01/23 00:34:20;;;;;;;15.93;2.97;;;30.40;76.00;;;;;;5053159;28;20188;-73
2021/01/23 00:36:47;;;;;;;8.13;2.80;;;30.60;75.10;;;;;;5052881;28;20194;-68
2021/01/23 00:39:14;;;;;;;15.63;3.60;;;30.40;75.30;;;;;;5052624;28;20176;-72
2021/01/23 00:41:42;;;;;;;12.03;3.57;;;30.70;75.40;;;;;;5052956;28;20745;-70
2021/01/23 00:44:09;;;;;;;12.37;2.83;;;30.90;74.50;;;;;;5053163;28;20176;-70
2021/01/23 00:46:37;;;;;;;15.77;3.00;;;31.00;74.60;;;;;;5052974;28;20176;-69
2021/01/23 00:49:04;;;;;;;14.57;3.07;;;31.00;74.50;;;;;;5052104;28;20182;-71
2021/01/23 00:51:32;;;;;;;9.67;2.57;;;30.90;74.10;;;;;;5051552;28;20200;-69
2021/01/23 00:53:59;;;;;;;18.40;3.35;;;31.00;75.00;;;;;;5052731;28;20187;-72
2021/01/23 00:56:26;;;;;;;15.43;3.10;;;31.10;75.20;;;;;;5052267;28;20542;-68
2021/01/23 00:58:54;;;;;;;16.07;3.57;;;31.20;74.60;;;;;;5053067;28;20538;-72
2021/01/23 01:01:21;;;;;;;20.27;3.87;;;31.00;74.20;;;;;;5051502;28;20184;-71
2021/01/23 01:03:48;;;;;;;13.13;3.33;;;31.00;74.80;;;;;;5052666;28;20282;-71
2021/01/23 01:06:16;;;;;;;18.73;5.57;;;31.20;75.20;;;;;;5052574;28;20192;-73
2021/01/23 01:08:43;;;;;;;16.85;3.55;;;31.50;75.20;;;;;;5052465;28;20199;-72
2021/01/23 01:11:11;;;;;;;16.50;3.22;;;31.70;75.00;;;;;;5053006;28;20261;-71
2021/01/23 01:13:38;;;;;;;11.55;2.90;;;31.60;74.60;;;;;;5052141;28;20179;-72
2021/01/23 01:16:06;;;;;;;15.82;3.58;;;31.60;74.70;;;;;;5053598;28;20176;-74
2021/01/23 01:18:33;;;;;;;18.30;3.58;;;31.60;74.30;;;;;;5053265;28;20303;-72
2021/01/23 01:21:00;;;;;;;15.13;3.47;;;31.90;74.90;;;;;;5051734;28;20178;-71
2021/01/23 01:23:28;;;;;;;19.73;3.63;;;32.20;73.50;;;;;;5053363;28;20597;-72
2021/01/23 01:25:56;;;;;;;14.77;3.83;;;32.00;74.60;;;;;;5053421;28;20262;-72
2021/01/23 01:28:23;;;;;;;12.10;3.58;;;32.10;74.60;;;;;;5053146;28;20210;-67
2021/01/23 01:30:51;;;;;;;12.85;3.22;;;32.40;74.10;;;;;;5053161;28;20196;-69
2021/01/23 01:33:19;;;;;;;15.80;3.60;;;32.40;73.10;;;;;;5052295;28;20301;-70
2021/01/23 01:35:46;;;;;;;12.00;3.17;;;32.20;73.50;;;;;;5050905;28;20544;-71
2021/01/23 01:38:14;;;;;;;18.30;4.47;;;32.10;74.30;;;;;;5054372;28;20179;-72
2021/01/23 01:40:41;;;;;;;10.85;3.17;;;32.20;74.20;;;;;;5053305;28;20172;-71
2021/01/23 01:43:09;;;;;;;17.38;3.97;;;32.20;73.40;;;;;;5053414;28;20179;-69
2021/01/23 01:45:36;;;;;;;18.70;4.53;;;32.20;73.90;;;;;;5055359;28;20202;-69
2021/01/23 01:48:04;;;;;;;13.20;3.67;;;32.20;74.90;;;;;;5059881;28;20241;-72
2021/01/23 01:50:31;;;;;;;12.73;3.63;;;32.00;74.50;;;;;;5074720;28;20226;-70
2021/01/23 01:52:58;;;;;;;16.15;4.07;;;31.90;74.80;;;;;;5068583;28;20594;-68
2021/01/23 01:55:37;;;;;;;16.23;3.58;;;32.20;74.70;;;;;;5055084;28;20184;-69
2021/01/23 01:58:04;;;;;;;21.35;4.00;;;32.10;74.30;;;;;;5049754;28;20184;-72
2021/01/23 02:00:32;;;;;;;20.60;4.28;;;32.20;74.00;;;;;;5050748;28;20180;-71
2021/01/23 02:03:20;;;;;;;17.48;3.80;;;32.10;73.80;;;;;;5034658;28;20259;-70
2021/01/23 02:06:06;;;;;;;16.52;3.97;;;32.20;74.00;;;;;;5045413;28;20534;-70
2021/01/23 02:08:51;;;;;;;15.77;3.67;;;32.30;73.40;;;;;;5071347;28;20180;-70
2021/01/23 02:11:56;;;;;;;18.15;3.92;;;32.40;72.80;;;;;;5055973;28;20249;-71
2021/01/23 02:14:41;;;;;;;15.77;3.83;;;32.30;73.80;;;;;;5051701;28;20653;-70
2021/01/23 02:17:12;;;;;;;16.38;4.03;;;31.70;74.40;;;;;;5055953;28;20204;-70
2021/01/23 02:20:16;;;;;;;13.98;3.22;;;31.80;74.90;;;;;;5055276;28;20607;-70
2021/01/23 02:23:02;;;;;;;11.80;3.35;;;31.60;75.30;;;;;;5035712;28;20220;-71
2021/01/23 02:25:37;;;;;;;15.63;4.07;;;31.80;75.40;;;;;;5054518;28;20215;-71
2021/01/23 02:28:18;;;;;;;9.32;3.08;;;31.80;75.30;;;;;;5054615;28;20182;-68
2021/01/23 02:30:56;;;;;;;12.82;3.30;;;31.90;75.30;;;;;;5055388;28;20212;-69
2021/01/23 02:33:24;;;;;;;16.17;4.18;;;32.20;74.80;;;;;;5055431;28;20255;-70
2021/01/23 02:35:53;;;;;;;12.80;3.92;;;32.80;73.20;;;;;;5055254;28;20172;-70
2021/01/23 02:38:21;;;;;;;12.38;3.60;;;32.90;73.50;;;;;;5054378;28;20186;-71
2021/01/23 02:40:49;;;;;;;15.27;3.90;;;32.70;72.70;;;;;;5055236;28;20175;-69
2021/01/23 02:43:20;;;;;;;14.13;3.25;;;32.80;72.30;;;;;;5054791;28;20226;-68
2021/01/23 02:45:51;;;;;;;13.65;3.40;;;32.50;73.40;;;;;;5055364;28;20596;-69
2021/01/23 02:48:19;;;;;;;13.88;3.45;;;32.10;74.40;;;;;;5054914;28;20190;-70
2021/01/23 02:50:47;;;;;;;14.23;4.10;;;32.40;73.80;;;;;;5054282;28;20200;-70
2021/01/23 02:53:19;;;;;;;16.17;3.67;;;32.80;73.50;;;;;;5054237;28;20264;-71
2021/01/23 02:55:50;;;;;;;14.77;3.63;;;32.80;72.90;;;;;;5055340;28;20232;-69
2021/01/23 02:58:21;;;;;;;13.30;3.22;;;32.80;73.00;;;;;;5054915;28;20218;-70
2021/01/23 03:00:51;;;;;;;19.23;3.83;;;32.90;72.90;;;;;;5054785;28;20195;-71
2021/01/23 03:03:20;;;;;;;20.38;5.00;;;33.00;73.10;;;;;;5054430;28;20191;-71
2021/01/23 03:05:49;;;;;;;13.93;3.75;;;33.20;72.70;;;;;;5054205;28;20188;-72
2021/01/23 03:08:16;;;;;;;16.80;4.15;;;33.50;72.60;;;;;;5054697;28;20180;-70
2021/01/23 03:10:45;;;;;;;18.45;4.35;;;33.50;72.00;;;;;;5052651;28;20204;-70
2021/01/23 03:13:14;;;;;;;14.43;3.50;;;33.60;72.30;;;;;;5054472;28;20302;-71
2021/01/23 03:15:43;;;;;;;14.68;3.72;;;33.50;71.90;;;;;;5054707;28;20176;-71
2021/01/23 03:18:11;;;;;;;18.30;3.45;;;33.50;72.60;;;;;;5054680;28;20267;-69
2021/01/23 03:20:38;;;;;;;16.55;4.35;;;33.40;72.70;;;;;;5053885;28;20203;-72
2021/01/23 03:23:05;;;;;;;11.80;3.47;;;33.50;73.10;;;;;;5054560;28;20266;-72
2021/01/23 03:25:33;;;;;;;14.90;3.70;;;33.20;73.80;;;;;;5054372;28;20223;-70
2021/01/23 03:28:01;;;;;;;15.13;3.60;;;33.00;73.80;;;;;;5054411;28;20180;-70
2021/01/23 03:30:31;;;;;;;11.73;3.35;;;32.80;74.30;;;;;;5054459;28;20630;-70
2021/01/23 03:32:59;;;;;;;19.17;4.32;;;33.00;74.20;;;;;;5053945;28;20333;-71
2021/01/23 03:35:26;;;;;;;18.33;3.97;;;32.90;74.40;;;;;;5054336;28;20183;-72
2021/01/23 03:37:54;;;;;;;17.52;3.90;;;33.00;73.90;;;;;;5053496;28;20172;-70
2021/01/23 03:40:22;;;;;;;15.60;3.83;;;32.90;74.10;;;;;;5054144;28;20172;-71
2021/01/23 03:42:49;;;;;;;15.85;5.65;;;33.00;73.70;;;;;;5052597;28;20308;-70
2021/01/23 03:45:17;;;;;;;14.43;3.53;;;33.10;73.60;;;;;;5054538;28;20217;-70
2021/01/23 03:47:44;;;;;;;17.73;3.95;;;32.60;74.30;;;;;;5052950;28;20183;-69
2021/01/23 03:50:12;;;;;;;17.98;4.25;;;32.80;73.40;;;;;;5052379;28;20180;-68
2021/01/23 03:52:40;;;;;;;10.10;3.80;;;32.60;74.80;;;;;;5038053;28;20342;-67
2021/01/23 03:55:08;;;;;;;16.55;3.85;;;32.70;73.60;;;;;;5048899;28;20184;-68
2021/01/23 03:57:36;;;;;;;12.23;4.15;;;32.80;73.70;;;;;;5042578;28;20706;-69
2021/01/23 04:00:06;;;;;;;14.90;3.50;;;32.50;74.00;;;;;;5043222;28;20524;-68
2021/01/23 04:02:34;;;;;;;13.20;3.38;;;32.90;73.90;;;;;;5050452;28;20175;-67
2021/01/23 04:05:01;;;;;;;14.82;3.40;;;33.00;72.50;;;;;;5051783;28;20267;-72
2021/01/23 04:07:29;;;;;;;14.77;3.53;;;32.80;73.30;;;;;;5052154;28;20544;-69
2021/01/23 04:09:56;;;;;;;17.08;3.15;;;33.00;73.60;;;;;;5052862;28;20163;-72
2021/01/23 04:12:24;;;;;;;17.15;3.58;;;33.10;73.60;;;;;;5052199;28;20244;-72
2021/01/23 04:14:51;;;;;;;13.13;3.55;;;33.30;72.50;;;;;;5052850;28;20188;-70
2021/01/23 04:17:19;;;;;;;12.45;3.40;;;33.40;72.90;;;;;;5053485;28;20187;-70
2021/01/23 04:19:46;;;;;;;15.32;3.72;;;33.00;73.20;;;;;;5053496;28;20187;-71
2021/01/23 04:22:13;;;;;;;16.42;3.95;;;33.40;73.00;;;;;;5053316;28;20433;-71
2021/01/23 04:24:41;;;;;;;14.65;3.88;;;33.30;73.30;;;;;;5040075;28;20206;-69
2021/01/23 04:27:08;;;;;;;17.17;3.83;;;33.00;73.40;;;;;;5052596;28;20656;-70
2021/01/23 04:29:35;;;;;;;18.42;3.63;;;33.30;73.60;;;;;;5053093;28;20192;-70
2021/01/23 04:32:03;;;;;;;13.20;3.20;;;33.40;72.70;;;;;;5053160;28;20231;-69
2021/01/23 04:34:30;;;;;;;16.95;3.63;;;33.50;73.10;;;;;;5052664;28;20210;-71
2021/01/23 04:36:57;;;;;;;12.50;3.08;;;33.80;71.80;;;;;;5052954;28;20259;-68
2021/01/23 04:39:25;;;;;;;22.95;3.88;;;33.40;72.40;;;;;;5050828;28;20180;-69
2021/01/23 04:41:52;;;;;;;14.32;3.92;;;33.10;73.40;;;;;;5037956;28;20181;-73
2021/01/23 04:44:19;;;;;;;17.42;3.90;;;33.00;73.70;;;;;;5046535;28;20180;-69
2021/01/23 04:46:47;;;;;;;12.95;3.42;;;33.10;73.40;;;;;;5050983;28;20184;-71
2021/01/23 04:49:14;;;;;;;16.08;3.83;;;33.50;72.30;;;;;;5052779;28;20172;-68
2021/01/23 04:51:42;;;;;;;13.70;3.97;;;34.00;71.80;;;;;;5046284;28;20273;-68
2021/01/23 04:54:09;;;;;;;15.80;3.85;;;34.30;70.60;;;;;;5047730;28;20649;-69
2021/01/23 04:56:37;;;;;;;12.98;3.63;;;34.20;70.70;;;;;;5046986;28;20177;-67
2021/01/23 04:59:04;;;;;;;16.85;4.03;;;33.60;71.10;;;;;;5052366;28;20623;-68
2021/01/23 05:01:31;;;;;;;14.93;4.10;;;33.30;72.40;;;;;;5052296;28;20631;-71
2021/01/23 05:04:00;;;;;;;14.45;3.58;;;33.30;72.60;;;;;;5052246;28;20262;-69
2021/01/23 05:06:31;;;;;;;19.98;6.75;;;33.40;71.70;;;;;;5052465;28;20179;-68
2021/01/23 05:09:00;;;;;;;10.90;3.20;;;33.10;73.20;;;;;;5051312;28;20194;-69
2021/01/23 05:11:47;;;;;;;12.30;3.55;;;32.50;74.10;;;;;;5050943;28;20646;-68
2021/01/23 05:14:16;;;;;;;16.23;3.67;;;32.00;75.70;;;;;;5047768;28;20180;-69
2021/01/23 05:16:45;;;;;;;14.70;3.50;;;32.10;76.50;;;;;;5051767;28;20532;-68
2021/01/23 05:19:12;;;;;;;15.88;4.25;;;32.40;76.10;;;;;;5051848;28;20180;-67
2021/01/23 05:21:39;;;;;;;13.00;4.00;;;32.80;74.90;;;;;;5052484;28;20175;-68
2021/01/23 05:24:14;;;;;;;18.05;3.72;;;32.70;74.20;;;;;;5052350;28;20183;-68
2021/01/23 05:26:54;;;;;;;14.82;3.78;;;32.00;76.60;;;;;;5051016;28;20219;-68
2021/01/23 05:29:22;;;;;;;18.73;3.78;;;32.20;76.70;;;;;;5051621;28;20233;-67
2021/01/23 05:32:17;;;;;;;15.18;3.40;;;32.30;75.80;;;;;;5052326;28;20219;-69
2021/01/23 05:34:44;;;;;;;16.45;4.03;;;32.30;76.70;;;;;;5032103;28;20183;-68
2021/01/23 05:37:29;;;;;;;16.35;3.55;;;32.30;76.60;;;;;;5043250;28;20192;-68
2021/01/23 05:39:57;;;;;;;16.33;4.40;;;31.90;78.40;;;;;;5052415;28;20207;-69
2021/01/23 05:42:24;;;;;;;26.95;5.05;;;31.50;79.30;;;;;;5051205;28;20203;-69
2021/01/23 05:45:12;;;;;;;18.42;3.95;;;30.70;81.70;;;;;;5049786;28;20187;-69
2021/01/23 05:47:41;;;;;;;15.07;3.55;;;30.00;83.80;;;;;;5051032;28;20831;-69
2021/01/23 05:50:10;;;;;;;23.70;4.57;;;29.70;84.80;;;;;;5049470;28;20237;-70
2021/01/23 05:52:38;;;;;;;15.47;4.00;;;29.60;84.90;;;;;;5051288;28;20222;-71
2021/01/23 05:55:07;;;;;;;17.38;4.13;;;29.80;84.90;;;;;;5053261;28;20646;-67
2021/01/23 05:57:34;;;;;;;17.65;3.63;;;29.80;83.80;;;;;;5050717;28;20180;-70
2021/01/23 06:00:03;;;;;;;18.13;3.60;;;29.50;83.50;;;;;;5048651;28;20179;-68
2021/01/23 06:02:31;;;;;;;15.00;3.00;;;29.50;84.30;;;;;;5052356;28;20176;-69
2021/01/23 06:04:59;;;;;;;20.45;4.15;;;30.40;82.80;;;;;;5043607;28;20562;-70
2021/01/23 06:07:52;;;;;;;25.38;7.95;;;31.50;79.30;;;;;;5046758;28;20338;-70
2021/01/23 06:10:22;;;;;;;10.55;3.17;;;32.60;77.00;;;;;;5051078;28;20188;-71
2021/01/23 06:12:51;;;;;;;13.00;3.90;;;33.00;74.80;;;;;;5052237;28;20599;-71
2021/01/23 06:15:39;;;;;;;17.48;3.35;;;33.20;74.10;;;;;;5052476;28;20526;-68
2021/01/23 06:18:09;;;;;;;15.63;3.40;;;32.60;74.30;;;;;;5048971;28;20176;-69
2021/01/23 06:20:42;;;;;;;19.90;3.95;;;31.50;77.70;;;;;;5041249;28;20607;-67
2021/01/23 06:23:16;;;;;;;15.90;3.75;;;30.50;81.00;;;;;;5048081;28;20172;-69
2021/01/23 06:25:52;;;;;;;19.90;3.80;;;30.20;82.70;;;;;;5053493;28;20278;-68
2021/01/23 06:28:40;;;;;;;17.70;3.77;;;29.90;83.40;;;;;;5055161;28;20587;-68
2021/01/23 06:31:29;;;;;;;20.17;3.77;;;29.70;84.30;;;;;;5048380;28;20250;-68
2021/01/23 06:33:57;;;;;;;15.80;3.57;;;29.60;84.90;;;;;;5041663;28;20548;-68
2021/01/23 06:36:25;;;;;;;17.73;4.07;;;29.40;84.70;;;;;;5055276;28;20176;-68
2021/01/23 06:39:13;;;;;;;14.93;3.53;;;29.40;85.00;;;;;;5055418;28;20520;-69
2021/01/23 06:41:41;;;;;;;18.07;4.73;;;28.90;86.10;;;;;;5051838;28;20538;-69
2021/01/23 06:44:08;;;;;;;12.30;3.00;;;28.70;87.50;;;;;;5054654;28;20263;-70
2021/01/23 06:46:40;;;;;;;15.80;3.70;;;28.60;87.40;;;;;;5048004;28;20184;-70
2021/01/23 06:49:14;;;;;;;17.73;4.17;;;28.90;87.80;;;;;;5054844;28;20184;-70
2021/01/23 06:51:45;;;;;;;21.10;4.07;;;29.10;87.20;;;;;;5054169;28;20513;-71
2021/01/23 06:54:22;;;;;;;17.83;4.17;;;29.00;87.10;;;;;;5047000;28;20523;-71
2021/01/23 06:56:52;;;;;;;18.97;4.23;;;28.90;87.30;;;;;;5049824;28;20270;-70
2021/01/23 06:59:34;;;;;;;12.37;3.40;;;29.30;86.50;;;;;;5054949;28;20184;-69
2021/01/23 07:02:08;;;;;;;15.63;3.63;;;30.10;83.20;;;;;;5054843;28;20188;-70
2021/01/23 07:04:48;;;;;;;24.43;4.20;;;30.70;80.70;;;;;;5053337;28;20578;-69
2021/01/23 07:07:17;;;;;;;17.23;3.78;;;30.70;80.60;;;;;;5042761;28;20242;-70
2021/01/23 07:09:55;;;;;;;12.60;5.37;;;30.50;81.60;;;;;;5045000;28;20177;-70
2021/01/23 07:12:43;;;;;;;14.48;4.82;;;30.50;80.90;;;;;;5044006;28;20303;-71
2021/01/23 07:15:34;;;;;;;15.52;4.22;;;31.30;79.40;;;;;;5051992;28;20176;-69
2021/01/23 07:18:13;;;;;;;12.55;4.00;;;31.80;78.00;;;;;;5053378;28;20194;-71
2021/01/23 07:20:41;;;;;;;10.25;2.97;;;31.60;78.10;;;;;;5060589;28;20184;-68
2021/01/23 07:23:08;;;;;;;14.82;3.60;;;31.50;77.60;;;;;;5053596;28;20733;-69
2021/01/23 07:25:36;;;;;;;17.73;3.78;;;31.40;77.60;;;;;;5052703;28;20589;-70
2021/01/23 07:28:04;;;;;;;14.38;3.63;;;31.30;78.00;;;;;;5054757;28;20222;-71
2021/01/23 07:30:32;;;;;;;16.92;3.78;;;31.10;79.10;;;;;;5053923;28;20176;-71
2021/01/23 07:32:59;;;;;;;10.60;3.50;;;30.40;80.50;;;;;;5053604;28;20282;-69
2021/01/23 07:35:35;;;;;;;12.75;2.95;;;29.90;81.80;;;;;;5052952;28;20184;-71
2021/01/23 07:38:04;;;;;;;16.55;3.83;;;30.10;82.20;;;;;;5053762;28;20549;-69
2021/01/23 07:40:39;;;;;;;15.80;3.75;;;30.30;80.50;;;;;;5053898;28;20547;-70
2021/01/23 07:43:07;;;;;;;11.32;2.85;;;30.30;80.20;;;;;;5053343;28;20188;-68
2021/01/23 07:45:34;;;;;;;13.40;3.70;;;30.30;79.30;;;;;;5051763;28;20274;-71
2021/01/23 07:48:05;;;;;;;16.47;2.83;;;30.40;79.60;;;;;;5053815;28;20186;-71
2021/01/23 07:50:41;;;;;;;9.77;3.33;;;30.20;78.70;;;;;;5053772;28;20524;-71
2021/01/23 07:53:24;;;;;;;9.20;2.57;;;29.90;78.10;;;;;;5053599;28;20206;-69
2021/01/23 07:55:52;;;;;;;9.83;3.10;;;29.60;78.70;;;;;;5052412;28;20183;-70
2021/01/23 07:58:19;;;;;;;14.10;3.30;;;29.70;78.40;;;;;;5051191;28;20194;-69
2021/01/23 08:00:47;;;;;;;9.97;3.13;;;29.50;78.10;;;;;;5049066;28;20188;-68
2021/01/23 08:03:14;;;;;;;9.07;2.43;;;29.40;78.20;;;;;;5052596;28;20184;-69
2021/01/23 08:05:48;;;;;;;11.83;2.77;;;29.30;78.20;;;;;;5041186;28;20184;-68
2021/01/23 08:08:35;;;;;;;6.20;2.70;;;29.10;78.50;;;;;;5049159;28;20236;-70
2021/01/23 08:11:04;;;;;;;15.47;3.70;;;29.10;78.60;;;;;;5052079;28;20200;-70
2021/01/23 08:13:34;;;;;;;7.97;2.87;;;29.00;78.60;;;;;;5052776;28;20251;-70
2021/01/23 08:16:11;;;;;;;8.97;2.43;;;28.80;78.20;;;;;;5053619;28;20194;-69
2021/01/23 08:18:38;;;;;;;8.87;2.13;;;28.90;78.60;;;;;;5052636;28;20704;-71
2021/01/23 08:21:23;;;;;;;9.13;2.60;;;28.80;78.30;;;;;;5052493;28;20654;-68
2021/01/23 08:23:51;;;;;;;6.57;2.60;;;28.80;78.20;;;;;;5052395;28;20176;-69
2021/01/23 08:26:18;;;;;;;7.67;2.10;;;28.70;77.70;;;;;;5051165;28;20219;-70
2021/01/23 08:28:48;;;;;;;6.87;2.10;;;28.70;77.50;;;;;;5050084;28;20196;-68
2021/01/23 08:31:23;;;;;;;7.00;2.30;;;28.70;77.80;;;;;;5046655;28;20215;-68
2021/01/23 08:33:55;;;;;;;9.60;2.40;;;28.70;77.60;;;;;;5051139;28;20183;-69
2021/01/23 08:36:35;;;;;;;8.87;3.13;;;28.70;77.60;;;;;;5040590;28;20204;-68
2021/01/23 08:39:06;;;;;;;9.17;4.63;;;28.60;77.50;;;;;;5050156;28;20194;-69
2021/01/23 08:41:39;;;;;;;6.87;2.10;;;28.60;77.70;;;;;;5048429;28;20646;-68
2021/01/23 08:44:07;;;;;;;10.23;2.60;;;28.50;78.00;;;;;;5050277;28;20187;-69
2021/01/23 08:46:34;;;;;;;7.77;2.80;;;28.50;78.20;;;;;;5046091;28;20193;-70
2021/01/23 08:49:01;;;;;;;13.03;2.73;;;28.40;78.40;;;;;;5051594;28;20191;-69
2021/01/23 08:51:30;;;;;;;8.67;2.50;;;28.40;78.60;;;;;;5050759;28;20295;-69
2021/01/23 08:53:57;;;;;;;7.53;2.50;;;28.30;78.80;;;;;;5050290;28;20222;-68
2021/01/23 08:56:24;;;;;;;8.83;2.67;;;28.30;79.00;;;;;;5046699;28;20188;-69
2021/01/23 08:58:52;;;;;;;7.13;2.53;;;28.20;79.30;;;;;;5048721;28;20184;-69
2021/01/23 09:01:19;;;;;;;8.60;2.57;;;28.20;79.80;;;;;;5048217;28;20642;-70
2021/01/23 09:03:46;;;;;;;6.97;2.67;;;28.10;80.00;;;;;;5052371;28;20175;-69
2021/01/23 09:06:14;;;;;;;9.47;2.63;;;28.10;80.20;;;;;;5042815;28;20203;-69
2021/01/23 09:08:41;;;;;;;6.03;2.70;;;28.10;80.40;;;;;;5052379;28;20214;-67
2021/01/23 09:11:09;;;;;;;8.97;2.77;;;28.00;80.70;;;;;;5051751;28;20754;-68
2021/01/23 09:13:36;;;;;;;8.37;2.97;;;28.00;81.00;;;;;;5050699;28;20199;-68
2021/01/23 09:16:04;;;;;;;10.20;2.93;;;28.00;81.90;;;;;;5051762;28;20191;-67
2021/01/23 09:18:32;;;;;;;14.30;3.03;;;27.90;82.10;;;;;;5052111;28;20237;-67
2021/01/23 09:21:00;;;;;;;6.43;2.90;;;27.80;82.60;;;;;;5052088;28;20606;-68
2021/01/23 09:23:27;;;;;;;10.90;3.13;;;27.80;83.00;;;;;;5050916;28;20184;-66
2021/01/23 09:25:54;;;;;;;8.30;2.83;;;27.70;83.20;;;;;;5051577;28;20230;-66
2021/01/23 09:28:25;;;;;;;12.57;2.70;;;27.70;83.70;;;;;;5052139;28;20219;-66
2021/01/23 09:30:52;;;;;;;9.37;4.57;;;27.70;83.90;;;;;;5051481;28;20184;-67
2021/01/23 09:33:19;;;;;;;8.77;3.00;;;27.60;84.30;;;;;;5051242;28;20192;-67
2021/01/23 09:35:46;;;;;;;7.97;3.40;;;27.60;84.50;;;;;;5037824;28;20184;-66
2021/01/23 09:38:14;;;;;;;10.00;3.60;;;27.60;84.60;;;;;;5052335;28;20188;-68
2021/01/23 09:40:41;;;;;;;10.93;4.00;;;27.60;84.80;;;;;;5044578;28;20187;-69
2021/01/23 09:43:09;;;;;;;8.07;3.27;;;27.60;85.00;;;;;;5043702;28;20191;-68
2021/01/23 09:45:36;;;;;;;11.73;3.87;;;27.50;84.90;;;;;;5047010;28;20180;-69
2021/01/23 09:48:04;;;;;;;10.73;3.17;;;27.50;85.10;;;;;;5037808;28;20254;-69
2021/01/23 09:50:31;;;;;;;11.37;3.93;;;27.50;85.30;;;;;;5050582;28;20180;-70
2021/01/23 09:52:58;;;;;;;8.23;2.97;;;27.50;85.40;;;;;;5050512;28;20230;-70
2021/01/23 09:55:26;;;;;;;13.70;3.87;;;27.40;84.70;;;;;;5050081;28;20211;-71
2021/01/23 09:57:53;;;;;;;10.73;3.73;;;27.40;84.80;;;;;;5050505;28;20183;-69
2021/01/23 10:00:21;;;;;;;9.30;2.90;;;27.40;85.00;;;;;;5053822;28;20188;-69
2021/01/23 10:02:48;;;;;;;9.67;3.20;;;27.40;85.30;;;;;;5050673;28;20270;-71
2021/01/23 10:05:16;;;;;;;13.70;3.80;;;27.40;85.60;;;;;;5048889;28;20667;-70
2021/01/23 10:07:43;;;;;;;10.27;2.87;;;27.30;85.70;;;;;;5055019;28;20195;-70
2021/01/23 10:10:11;;;;;;;10.73;3.47;;;27.20;86.20;;;;;;5055570;28;20176;-69
2021/01/23 10:12:39;;;;;;;10.77;4.40;;;27.20;86.40;;;;;;5054972;28;20222;-68
2021/01/23 10:15:09;;;;;;;20.03;4.03;;;27.10;86.60;;;;;;5055338;28;20657;-68
2021/01/23 10:17:36;;;;;;;10.67;4.20;;;27.10;87.00;;;;;;5053248;28;20218;-70
2021/01/23 10:20:05;;;;;;;10.00;3.60;;;27.00;87.00;;;;;;5055202;28;20211;-68
2021/01/23 10:22:33;;;;;;;10.67;3.33;;;27.00;87.20;;;;;;5054157;28;20335;-68
2021/01/23 10:25:00;;;;;;;9.03;3.23;;;27.00;87.20;;;;;;5054032;28;20270;-68
2021/01/23 10:27:27;;;;;;;9.30;3.60;;;27.00;87.20;;;;;;5054524;28;20235;-68
2021/01/23 10:29:55;;;;;;;8.47;3.30;;;26.90;87.20;;;;;;5055051;28;20183;-68
2021/01/23 10:32:22;;;;;;;11.10;3.40;;;26.90;87.10;;;;;;5048776;28;20736;-69
2021/01/23 10:34:49;;;;;;;11.23;3.67;;;26.90;86.90;;;;;;5055124;28;20180;-69
2021/01/23 10:37:18;;;;;;;9.20;3.50;;;26.90;86.80;;;;;;5055315;28;20241;-71
2021/01/23 10:39:45;;;;;;;11.13;3.97;;;26.90;87.30;;;;;;5055064;28;20200;-72
2021/01/23 10:42:13;;;;;;;9.70;3.30;;;26.90;87.00;;;;;;5053747;28;20223;-71
2021/01/23 10:44:40;;;;;;;9.97;3.73;;;26.80;87.00;;;;;;5054757;28;20304;-72
2021/01/23 10:47:08;;;;;;;8.33;3.30;;;26.80;86.90;;;;;;5054750;28;20192;-71
2021/01/23 10:49:36;;;;;;;10.77;3.97;;;26.80;87.10;;;;;;5054093;28;20172;-71
2021/01/23 10:52:04;;;;;;;14.53;3.80;;;26.80;87.10;;;;;;5054847;28;20224;-71
2021/01/23 10:54:32;;;;;;;12.10;4.80;;;26.80;87.50;;;;;;5053925;28;20188;-70
2021/01/23 10:57:02;;;;;;;12.20;5.30;;;26.70;87.70;;;;;;5053720;28;20195;-72
2021/01/23 10:59:30;;;;;;;15.70;6.33;;;26.70;88.20;;;;;;5047694;28;20654;-72
2021/01/23 11:01:57;;;;;;;15.13;5.93;;;26.70;88.60;;;;;;5054437;28;20184;-68
2021/01/23 11:04:25;;;;;;;14.57;5.83;;;26.70;89.00;;;;;;5054210;28;20195;-70
2021/01/23 11:06:52;;;;;;;13.40;5.93;;;26.70;89.10;;;;;;5039785;28;20211;-68
2021/01/23 11:09:20;;;;;;;13.37;4.33;;;26.60;89.40;;;;;;5054299;28;20207;-70
2021/01/23 11:11:47;;;;;;;14.63;4.57;;;26.60;90.00;;;;;;5053716;28;20199;-68
2021/01/23 11:14:14;;;;;;;13.00;4.83;;;26.50;90.20;;;;;;5054650;28;20221;-68
2021/01/23 11:16:42;;;;;;;10.97;3.83;;;26.50;90.40;;;;;;5051915;28;20172;-67
2021/01/23 11:19:09;;;;;;;13.53;4.70;;;26.50;90.50;;;;;;5053623;28;20180;-68
2021/01/23 11:21:37;;;;;;;12.43;4.17;;;26.50;90.60;;;;;;5054037;28;20240;-69
2021/01/23 11:24:04;;;;;;;15.17;4.47;;;26.40;90.70;;;;;;5054236;28;20281;-68
2021/01/23 11:26:32;;;;;;;15.23;3.70;;;26.30;90.80;;;;;;5053643;28;20231;-68
2021/01/23 11:28:59;;;;;;;17.40;4.17;;;26.30;91.10;;;;;;5053743;28;20222;-68
2021/01/23 11:31:26;;;;;;;13.23;3.67;;;26.30;92.00;;;;;;5051181;28;20287;-68
2021/01/23 11:33:54;;;;;;;17.67;3.87;;;26.20;92.90;;;;;;5044038;28;20184;-68
2021/01/23 11:36:22;;;;;;;13.77;3.63;;;26.10;93.40;;;;;;5054118;28;20190;-68
2021/01/23 11:38:49;;;;;;;15.70;4.00;;;25.90;93.90;;;;;;5053623;28;20191;-68
2021/01/23 11:41:17;;;;;;;17.70;3.93;;;25.80;94.30;;;;;;5053815;28;20184;-68
2021/01/23 11:43:44;;;;;;;22.70;4.60;;;25.80;94.90;;;;;;5052565;28;20191;-67
2021/01/23 11:46:11;;;;;;;18.13;4.10;;;25.70;94.90;;;;;;5050479;28;20192;-68
2021/01/23 11:48:39;;;;;;;17.33;4.43;;;25.70;95.10;;;;;;5048364;28;20192;-68
2021/01/23 11:51:06;;;;;;;19.07;4.23;;;25.70;95.20;;;;;;5047924;28;20659;-67
2021/01/23 11:53:34;;;;;;;14.37;3.43;;;25.60;95.30;;;;;;5053405;28;20190;-67
2021/01/23 11:56:01;;;;;;;16.27;4.20;;;25.50;95.60;;;;;;5039229;28;20180;-67
2021/01/23 11:58:28;;;;;;;22.47;4.90;;;25.40;95.80;;;;;;5047770;28;20176;-68
2021/01/23 12:00:56;;;;;;;13.33;3.47;;;25.40;96.00;;;;;;5051854;28;20662;-71
2021/01/23 12:03:23;;;;;;;22.00;4.37;;;25.40;96.30;;;;;;5056821;28;20260;-71
2021/01/23 12:05:50;;;;;;;14.90;3.40;;;25.30;96.40;;;;;;5044594;28;20214;-72
2021/01/23 12:08:18;;;;;;;17.93;4.17;;;25.30;96.60;;;;;;5051889;28;20187;-70
2021/01/23 12:10:45;;;;;;;15.87;3.87;;;25.20;97.00;;;;;;5053085;28;20180;-71
2021/01/23 12:13:13;;;;;;;15.50;3.97;;;25.10;97.30;;;;;;5053503;28;20241;-70
2021/01/23 12:15:40;;;;;;;14.77;4.00;;;25.10;97.60;;;;;;5052657;28;20230;-71
2021/01/23 12:18:08;;;;;;;11.63;3.43;;;25.10;97.60;;;;;;5052989;28;20259;-71
2021/01/23 12:20:36;;;;;;;16.53;4.67;;;25.10;97.80;;;;;;5053502;28;20197;-72
2021/01/23 12:23:04;;;;;;;14.90;4.13;;;25.10;98.00;;;;;;5052767;28;20237;-70
2021/01/23 12:25:31;;;;;;;16.50;3.63;;;25.10;98.10;;;;;;5052884;28;20220;-71
2021/01/23 12:27:59;;;;;;;12.37;3.80;;;25.00;98.30;;;;;;5053358;28;20563;-70
2021/01/23 12:30:26;;;;;;;15.70;4.03;;;25.00;98.40;;;;;;5053056;28;20175;-68
2021/01/23 12:32:54;;;;;;;13.63;3.90;;;24.90;98.50;;;;;;5052735;28;20268;-69
2021/01/23 12:35:22;;;;;;;15.67;3.90;;;24.90;98.70;;;;;;5052996;28;20653;-71
2021/01/23 12:37:51;;;;;;;18.23;3.93;;;24.90;98.80;;;;;;5052506;28;20187;-70
2021/01/23 12:40:18;;;;;;;16.33;4.23;;;24.80;98.80;;;;;;5053183;28;20739;-71
2021/01/23 12:42:46;;;;;;;17.03;4.03;;;24.80;98.90;;;;;;5052483;28;20275;-70
2021/01/23 12:45:15;;;;;;;18.03;3.67;;;24.90;98.90;;;;;;5052675;28;20176;-70
2021/01/23 12:47:42;;;;;;;26.53;4.33;;;24.80;98.90;;;;;;5044142;28;20708;-67
2021/01/23 12:50:11;;;;;;;12.67;4.43;;;24.80;98.80;;;;;;5052499;28;20630;-68
2021/01/23 12:52:39;;;;;;;14.97;3.60;;;24.90;98.90;;;;;;5052575;28;20212;-70